Terminal Aerodrome Forecast
Issued by NWS Louisville, KY

Home | Current Version | Previous Version | Text Only | Print | Product List | Glossary On
Versions: 1 2 3 4 5 6 7 8 9 10 11 12 13 14 15 16 17 18 19 20 21 22 23 24
000
FTUS43 KLMK 242327
TAFSDF
TAF
KSDF 242327Z 2500/2606 09006KT 4SM -SHRA BKN018
      TEMPO 2500/2501 1 1/2SM TSRA BKN008CB
     FM250200 16014G24KT 5SM -SHRA BKN035 WS018/18055KT
     FM250400 VRB20G35KT 1SM +TSRA OVC015CB
     FM250700 22013G23KT 5SM -SHRA OVC025
     FM251100 27010KT P6SM BKN250
     FM260100 32004KT P6SM SCT250=

USA.gov is the U.S. government's official web portal to all federal, state and local government web resources and services.